createdAt,value
2023-09-28T00:00:35.689Z,10.67
2023-09-28T00:03:05.800Z,10.66
2023-09-28T00:05:33.762Z,10.65
2023-09-28T00:08:01.882Z,10.63
2023-09-28T00:10:29.629Z,10.60
2023-09-28T00:12:57.250Z,10.58
2023-09-28T00:15:27.516Z,10.56
2023-09-28T00:17:56.240Z,10.54
2023-09-28T00:20:24.376Z,10.52
2023-09-28T00:22:54.253Z,10.51
2023-09-28T00:25:24.579Z,10.50
2023-09-28T00:27:54.167Z,10.49
2023-09-28T00:30:23.956Z,10.48
2023-09-28T00:32:55.627Z,10.47
2023-09-28T00:35:24.145Z,10.45
2023-09-28T00:37:51.988Z,10.45
2023-09-28T00:40:29.171Z,10.45
2023-09-28T00:42:57.019Z,10.44
2023-09-28T00:45:25.404Z,10.39
2023-09-28T00:48:00.320Z,10.35
2023-09-28T00:50:29.127Z,10.32
2023-09-28T00:53:00.123Z,10.30
2023-09-28T00:55:28.923Z,10.28
2023-09-28T00:58:01.677Z,10.26
2023-09-28T01:00:30.948Z,10.24
2023-09-28T01:03:00.388Z,10.22
2023-09-28T01:05:32.660Z,10.21
2023-09-28T01:08:11.113Z,10.20
2023-09-28T01:10:39.778Z,10.19
2023-09-28T01:13:13.038Z,10.18
2023-09-28T01:15:42.555Z,10.18
2023-09-28T01:18:11.326Z,10.18
2023-09-28T01:20:39.726Z,10.17
2023-09-28T01:23:07.238Z,10.16
2023-09-28T01:25:35.148Z,10.15
2023-09-28T01:28:02.563Z,10.15
2023-09-28T01:30:29.993Z,10.14
2023-09-28T01:32:57.488Z,10.11
2023-09-28T01:35:25.053Z,10.08
2023-09-28T01:38:16.702Z,10.06
2023-09-28T01:40:45.739Z,10.04
2023-09-28T01:43:13.293Z,10.03
2023-09-28T01:45:40.913Z,10.00
2023-09-28T01:48:08.342Z,9.99
2023-09-28T01:50:35.921Z,9.97
2023-09-28T01:53:03.823Z,9.94
2023-09-28T01:55:31.269Z,9.91
2023-09-28T01:57:58.723Z,9.88
2023-09-28T02:00:26.717Z,9.85
2023-09-28T02:02:56.246Z,9.83
2023-09-28T02:05:23.825Z,9.80
2023-09-28T02:07:51.933Z,9.78
2023-09-28T02:10:21.670Z,9.76
2023-09-28T02:12:48.975Z,9.73
2023-09-28T02:15:16.652Z,9.71
2023-09-28T02:17:45.767Z,9.69
2023-09-28T02:20:18.203Z,9.66
2023-09-28T02:22:46.588Z,9.63
2023-09-28T02:25:25.158Z,9.62
2023-09-28T02:27:53.643Z,9.60
2023-09-28T02:30:24.077Z,9.59
2023-09-28T02:32:52.923Z,9.57
2023-09-28T02:35:20.817Z,9.56
2023-09-28T02:37:50.507Z,9.53
2023-09-28T02:40:19.249Z,9.51
2023-09-28T02:42:49.652Z,9.48
2023-09-28T02:45:18.324Z,9.45
2023-09-28T02:47:48.619Z,9.43
2023-09-28T02:50:18.778Z,9.41
2023-09-28T02:52:49.650Z,9.39
2023-09-28T02:55:19.953Z,9.38
2023-09-28T02:57:49.044Z,9.35
2023-09-28T03:00:23.207Z,9.31
2023-09-28T03:02:54.454Z,9.30
2023-09-28T03:05:22.337Z,9.28
2023-09-28T03:07:50.150Z,9.26
2023-09-28T03:10:19.706Z,9.24
2023-09-28T03:12:48.365Z,9.22
2023-09-28T03:15:17.712Z,9.20
2023-09-28T03:17:47.876Z,9.17
2023-09-28T03:20:23.017Z,9.13
2023-09-28T03:22:51.089Z,9.11
2023-09-28T03:25:20.119Z,9.08
2023-09-28T03:27:49.803Z,9.06
2023-09-28T03:30:18.645Z,9.04
2023-09-28T03:32:48.734Z,9.04
2023-09-28T03:35:17.662Z,9.03
2023-09-28T03:37:45.841Z,9.01
2023-09-28T03:40:14.158Z,9.00
2023-09-28T03:42:42.806Z,8.98
2023-09-28T03:45:11.188Z,8.97
2023-09-28T03:47:39.261Z,8.94
2023-09-28T03:50:09.006Z,8.93
2023-09-28T03:52:38.430Z,8.92
2023-09-28T03:55:09.283Z,8.91
2023-09-28T03:57:37.275Z,8.90
2023-09-28T04:00:05.468Z,8.89
2023-09-28T04:02:40.033Z,8.88
2023-09-28T04:05:08.258Z,8.88
2023-09-28T04:07:36.258Z,8.88
2023-09-28T04:10:04.810Z,8.88
2023-09-28T04:12:32.262Z,8.87
2023-09-28T04:14:59.621Z,8.86
2023-09-28T04:17:27.085Z,8.84
2023-09-28T04:19:54.837Z,8.84
2023-09-28T04:22:22.224Z,8.83
2023-09-28T04:24:49.587Z,8.84
2023-09-28T04:27:17.964Z,8.85
2023-09-28T04:29:46.238Z,8.86
2023-09-28T04:32:13.723Z,8.89
2023-09-28T04:34:41.053Z,8.89
2023-09-28T04:37:08.422Z,8.90
2023-09-28T04:39:36.032Z,8.90
2023-09-28T04:42:03.493Z,8.92
2023-09-28T04:44:31.023Z,8.95
2023-09-28T04:46:58.463Z,8.98
2023-09-28T04:49:25.847Z,9.02
2023-09-28T04:51:53.455Z,9.06
2023-09-28T04:54:21.432Z,9.10
2023-09-28T04:56:48.772Z,9.15
2023-09-28T04:59:16.141Z,9.19
2023-09-28T05:01:43.992Z,9.24
2023-09-28T05:04:12.451Z,9.30
2023-09-28T05:06:41.438Z,9.35
2023-09-28T05:09:08.895Z,9.40
2023-09-28T05:11:36.212Z,9.45
2023-09-28T05:14:03.578Z,9.51
2023-09-28T05:16:31.048Z,9.58
2023-09-28T05:18:58.451Z,9.63
2023-09-28T05:21:25.846Z,9.70
2023-09-28T05:23:53.396Z,9.76
2023-09-28T05:26:21.082Z,9.84
2023-09-28T05:28:49.029Z,9.92
2023-09-28T05:31:16.702Z,10.00
2023-09-28T05:33:44.710Z,10.07
2023-09-28T05:36:12.803Z,10.14
2023-09-28T05:38:40.202Z,10.23
2023-09-28T05:41:07.664Z,10.33
2023-09-28T05:43:35.028Z,10.41
2023-09-28T05:46:02.418Z,10.52
2023-09-28T05:48:29.986Z,10.64
2023-09-28T05:50:57.375Z,10.75
2023-09-28T05:53:24.785Z,10.85
2023-09-28T05:55:52.984Z,10.95
2023-09-28T05:58:23.163Z,11.05
2023-09-28T06:00:50.553Z,11.15
2023-09-28T06:03:18.257Z,11.26
2023-09-28T06:05:45.671Z,11.35
2023-09-28T06:08:14.058Z,11.45
2023-09-28T06:10:41.681Z,11.54
2023-09-28T06:13:09.074Z,11.65
2023-09-28T06:15:36.805Z,11.74
2023-09-28T06:18:05.477Z,11.84
2023-09-28T06:20:37.976Z,11.95
2023-09-28T06:23:10.321Z,12.04
2023-09-28T06:25:37.913Z,12.14
2023-09-28T06:28:07.926Z,12.22
2023-09-28T06:30:35.388Z,12.32
2023-09-28T06:33:04.684Z,12.41
2023-09-28T06:35:32.643Z,12.51
2023-09-28T06:38:02.155Z,12.60
2023-09-28T06:40:29.715Z,12.69
2023-09-28T06:42:57.054Z,12.76
2023-09-28T06:45:24.607Z,12.82
2023-09-28T06:48:05.057Z,12.86
2023-09-28T06:50:41.670Z,12.96
2023-09-28T06:53:09.110Z,13.04
2023-09-28T06:55:37.203Z,13.12
2023-09-28T06:58:07.466Z,13.21
2023-09-28T07:00:36.623Z,13.29
2023-09-28T07:03:06.803Z,13.39
2023-09-28T07:05:37.456Z,13.47
2023-09-28T07:08:06.438Z,13.55
2023-09-28T07:10:34.842Z,13.64
2023-09-28T07:13:03.658Z,13.73
2023-09-28T07:15:32.100Z,13.81
2023-09-28T07:17:59.773Z,13.89
2023-09-28T07:20:27.751Z,13.96
2023-09-28T07:22:55.353Z,14.04
2023-09-28T07:25:22.766Z,14.13
2023-09-28T07:27:53.709Z,14.21
2023-09-28T07:30:21.658Z,14.30
2023-09-28T07:32:52.842Z,14.39
2023-09-28T07:35:20.799Z,14.47
2023-09-28T07:37:48.489Z,14.56
2023-09-28T07:40:25.826Z,14.64
2023-09-28T07:42:56.375Z,14.72
2023-09-28T07:45:23.907Z,14.82
2023-09-28T07:47:51.392Z,14.92
2023-09-28T07:50:18.971Z,15.03
2023-09-28T07:52:46.360Z,15.13
2023-09-28T07:55:14.791Z,15.24
2023-09-28T08:00:13.380Z,15.47
2023-09-28T08:02:41.903Z,15.58
2023-09-28T08:05:09.602Z,15.67
2023-09-28T08:07:36.990Z,15.79
2023-09-28T08:10:05.397Z,15.91
2023-09-28T08:12:35.481Z,16.01
2023-09-28T08:15:05.177Z,16.13
2023-09-28T08:17:34.525Z,16.27
2023-09-28T08:20:03.483Z,16.39
2023-09-28T08:22:31.319Z,16.50
2023-09-28T08:24:58.996Z,16.60
2023-09-28T08:27:26.836Z,16.71
2023-09-28T08:29:55.024Z,16.80
2023-09-28T08:32:22.618Z,16.91
2023-09-28T08:34:50.440Z,17.02
2023-09-28T08:37:17.908Z,17.11
2023-09-28T08:39:48.410Z,17.22
2023-09-28T08:42:16.416Z,17.32
2023-09-28T08:44:43.781Z,17.42
2023-09-28T08:47:18.250Z,17.53
2023-09-28T08:49:48.698Z,17.62
2023-09-28T08:52:19.045Z,17.72
2023-09-28T08:54:46.488Z,17.82
2023-09-28T08:57:14.470Z,17.90
2023-09-28T08:59:41.883Z,18.00
2023-09-28T09:02:09.927Z,18.09
2023-09-28T09:04:37.474Z,18.17
2023-09-28T09:07:05.643Z,18.24
2023-09-28T09:09:33.887Z,18.31
2023-09-28T09:12:01.452Z,18.38
2023-09-28T09:14:29.638Z,18.45
2023-09-28T09:16:57.250Z,18.53
2023-09-28T09:19:30.186Z,18.60
2023-09-28T09:21:58.681Z,18.67
2023-09-28T09:24:26.834Z,18.75
2023-09-28T09:26:54.842Z,18.83
2023-09-28T09:29:23.777Z,18.91
2023-09-28T09:31:52.287Z,18.98
2023-09-28T09:34:21.135Z,19.07
2023-09-28T09:36:53.307Z,19.14
2023-09-28T09:39:25.581Z,19.21
2023-09-28T09:41:54.182Z,19.28
2023-09-28T09:44:23.118Z,19.34
2023-09-28T09:46:51.671Z,19.41
2023-09-28T09:49:21.155Z,19.48
2023-09-28T09:51:49.509Z,19.55
2023-09-28T09:54:17.735Z,19.63
2023-09-28T09:56:47.628Z,19.72
2023-09-28T09:59:19.244Z,19.80
2023-09-28T10:01:54.886Z,19.87
2023-09-28T10:04:25.272Z,19.96
2023-09-28T10:06:53.626Z,20.04
2023-09-28T10:09:21.650Z,20.13
2023-09-28T10:11:51.054Z,20.22
2023-09-28T10:14:20.799Z,20.30
2023-09-28T10:16:49.843Z,20.38
2023-09-28T10:19:20.531Z,20.45
2023-09-28T10:21:48.309Z,20.52
2023-09-28T10:24:16.305Z,20.57
2023-09-28T10:26:48.236Z,20.61
2023-09-28T10:29:24.882Z,20.68
2023-09-28T10:31:58.304Z,20.77
2023-09-28T10:34:28.519Z,20.84
2023-09-28T10:37:09.483Z,20.91
2023-09-28T10:39:37.073Z,20.99
2023-09-28T10:42:13.115Z,21.10
2023-09-28T10:44:48.231Z,21.18
2023-09-28T10:47:16.526Z,21.26
2023-09-28T10:49:44.752Z,21.32
2023-09-28T10:52:12.251Z,21.37
2023-09-28T10:54:40.128Z,21.42
2023-09-28T10:57:07.824Z,21.50
2023-09-28T10:59:37.731Z,21.58
2023-09-28T11:02:05.622Z,21.65
2023-09-28T11:04:47.929Z,21.73
2023-09-28T11:07:18.953Z,21.83
2023-09-28T11:09:46.574Z,21.91
2023-09-28T11:12:14.627Z,22.00
2023-09-28T11:14:45.574Z,22.10
2023-09-28T11:17:13.180Z,22.19
2023-09-28T11:19:40.648Z,22.26
2023-09-28T11:22:08.700Z,22.33
2023-09-28T11:24:36.344Z,22.40
2023-09-28T11:27:03.819Z,22.48
2023-09-28T11:29:33.072Z,22.54
2023-09-28T11:32:00.637Z,22.61
2023-09-28T11:34:32.075Z,22.69
2023-09-28T11:36:59.786Z,22.76
2023-09-28T11:39:27.543Z,22.82
2023-09-28T11:42:01.771Z,22.86
2023-09-28T11:44:29.549Z,22.91
2023-09-28T11:46:58.020Z,22.95
2023-09-28T11:50:18.568Z,23.02
2023-09-28T11:52:48.245Z,23.03
2023-09-28T11:55:16.149Z,23.05
2023-09-28T11:57:46.703Z,23.07
2023-09-28T12:00:19.962Z,23.08
2023-09-28T12:02:50.242Z,23.11
2023-09-28T12:05:18.928Z,23.12
2023-09-28T12:07:46.529Z,23.13
2023-09-28T12:10:15.344Z,23.15
2023-09-28T12:12:43.021Z,23.17
2023-09-28T12:15:13.604Z,23.19
2023-09-28T12:17:41.797Z,23.21
2023-09-28T12:20:10.792Z,23.24
2023-09-28T12:22:38.693Z,23.27
2023-09-28T12:25:07.004Z,23.30
2023-09-28T12:27:35.536Z,23.31
2023-09-28T12:30:04.354Z,23.32
2023-09-28T12:32:32.028Z,23.33
2023-09-28T12:35:02.216Z,23.36
2023-09-28T12:37:31.036Z,23.37
2023-09-28T12:39:59.098Z,23.38
2023-09-28T12:42:26.796Z,23.39
2023-09-28T12:44:54.149Z,23.38
2023-09-28T12:47:22.123Z,23.39
2023-09-28T12:49:49.781Z,23.39
2023-09-28T12:52:17.308Z,23.40
2023-09-28T12:54:47.735Z,23.41
2023-09-28T12:57:15.272Z,23.42
2023-09-28T12:59:42.697Z,23.42
2023-09-28T13:02:10.062Z,23.42
2023-09-28T13:04:38.889Z,23.40
2023-09-28T13:07:06.459Z,23.39
2023-09-28T13:09:34.230Z,23.37
2023-09-28T13:12:01.826Z,23.36
2023-09-28T13:14:29.255Z,23.35
2023-09-28T13:16:57.382Z,23.34
2023-09-28T13:19:26.639Z,23.33
2023-09-28T13:21:55.474Z,23.32
2023-09-28T13:24:23.212Z,23.31
2023-09-28T13:26:50.918Z,23.30
2023-09-28T13:29:18.610Z,23.29
2023-09-28T13:31:48.661Z,23.28
2023-09-28T13:34:16.389Z,23.29
2023-09-28T13:36:44.055Z,23.29
2023-09-28T13:39:31.354Z,23.30
2023-09-28T13:42:02.539Z,23.28
2023-09-28T13:44:30.535Z,23.27
2023-09-28T13:46:58.750Z,23.23
2023-09-28T13:49:26.167Z,23.20
2023-09-28T13:51:54.352Z,23.17
2023-09-28T13:54:22.047Z,23.13
2023-09-28T13:56:49.704Z,23.09
2023-09-28T13:59:17.263Z,23.07
2023-09-28T14:01:44.936Z,23.03
2023-09-28T14:04:13.980Z,22.98
2023-09-28T14:06:41.963Z,22.95
2023-09-28T14:09:12.558Z,22.92
2023-09-28T14:11:43.731Z,22.90
2023-09-28T14:14:13.359Z,22.85
2023-09-28T14:16:40.881Z,22.81
2023-09-28T14:19:08.710Z,22.76
2023-09-28T14:21:40.631Z,22.70
2023-09-28T14:24:09.358Z,22.65
2023-09-28T14:26:37.237Z,22.60
2023-09-28T14:29:07.696Z,22.56
2023-09-28T14:31:38.064Z,22.52
2023-09-28T14:34:05.575Z,22.48
2023-09-28T14:36:33.580Z,22.44
2023-09-28T14:39:00.930Z,22.39
2023-09-28T14:41:29.776Z,22.34
2023-09-28T14:43:58.009Z,22.30
2023-09-28T14:46:25.450Z,22.24
2023-09-28T14:48:53.858Z,22.21
2023-09-28T14:51:21.183Z,22.17
2023-09-28T14:53:48.639Z,22.12
2023-09-28T14:56:16.201Z,22.06
2023-09-28T14:58:43.754Z,22.00
2023-09-28T15:01:12.760Z,21.94
2023-09-28T15:03:40.832Z,21.89
2023-09-28T15:06:08.856Z,21.83
2023-09-28T15:08:36.423Z,21.78
2023-09-28T15:11:03.834Z,21.71
2023-09-28T15:13:31.531Z,21.64
2023-09-28T15:16:00.683Z,21.57
2023-09-28T15:18:29.632Z,21.49
2023-09-28T15:20:57.077Z,21.39
2023-09-28T15:23:24.425Z,21.31
2023-09-28T15:25:52.441Z,21.22
2023-09-28T15:28:20.462Z,21.14
2023-09-28T15:30:57.425Z,21.04
2023-09-28T15:33:28.441Z,20.94
2023-09-28T15:35:58.751Z,20.85
2023-09-28T15:38:26.871Z,20.76
2023-09-28T15:40:54.475Z,20.67
2023-09-28T15:43:21.864Z,20.57
2023-09-28T15:45:49.576Z,20.50
2023-09-28T15:48:17.162Z,20.43
2023-09-28T15:50:44.802Z,20.37
2023-09-28T15:53:12.278Z,20.31
2023-09-28T15:55:39.687Z,20.24
2023-09-28T15:58:07.219Z,20.15
2023-09-28T16:00:38.282Z,20.03
2023-09-28T16:03:07.225Z,19.89
2023-09-28T16:05:35.110Z,19.74
2023-09-28T16:08:05.736Z,19.58
2023-09-28T16:10:33.263Z,19.41
2023-09-28T16:13:01.859Z,19.25
2023-09-28T16:15:29.225Z,19.07
2023-09-28T16:17:56.695Z,18.90
2023-09-28T16:20:24.385Z,18.73
2023-09-28T16:22:51.955Z,18.59
2023-09-28T16:25:19.452Z,18.44
2023-09-28T16:27:46.850Z,18.30
2023-09-28T16:30:14.580Z,18.17
2023-09-28T16:32:42.033Z,18.05
2023-09-28T16:35:10.177Z,17.93
2023-09-28T16:37:37.852Z,17.81
2023-09-28T16:40:05.937Z,17.69
2023-09-28T16:42:33.506Z,17.57
2023-09-28T16:45:01.330Z,17.45
2023-09-28T16:47:29.073Z,17.35
2023-09-28T16:49:56.780Z,17.26
2023-09-28T16:52:25.067Z,17.15
2023-09-28T16:54:52.415Z,17.04
2023-09-28T16:57:20.001Z,16.91
2023-09-28T16:59:47.391Z,16.77
2023-09-28T17:02:15.811Z,16.64
2023-09-28T17:04:43.586Z,16.52
2023-09-28T17:07:10.984Z,16.44
2023-09-28T17:09:38.462Z,16.35
2023-09-28T17:12:07.360Z,16.28
2023-09-28T17:14:37.538Z,16.20
2023-09-28T17:17:06.788Z,16.13
2023-09-28T17:19:34.427Z,16.07
2023-09-28T17:22:01.789Z,16.01
2023-09-28T17:24:29.189Z,15.95
2023-09-28T17:26:56.544Z,15.88
2023-09-28T17:29:25.789Z,15.79
2023-09-28T17:31:54.182Z,15.72
2023-09-28T17:34:22.177Z,15.65
2023-09-28T17:36:49.833Z,15.58
2023-09-28T17:39:17.226Z,15.50
2023-09-28T17:41:44.691Z,15.42
2023-09-28T17:44:12.210Z,15.36
2023-09-28T17:46:39.638Z,15.29
2023-09-28T17:49:08.758Z,15.22
2023-09-28T17:51:37.549Z,15.14
2023-09-28T17:54:05.913Z,15.05
2023-09-28T17:56:33.667Z,14.97
2023-09-28T17:59:01.236Z,14.88
2023-09-28T18:01:28.633Z,14.79
2023-09-28T18:03:56.501Z,14.70
2023-09-28T18:06:23.915Z,14.63
2023-09-28T18:08:51.399Z,14.53
2023-09-28T18:11:21.891Z,14.46
2023-09-28T18:13:50.816Z,14.41
2023-09-28T18:16:18.261Z,14.36
2023-09-28T18:18:46.857Z,14.32
2023-09-28T18:21:14.281Z,14.27
2023-09-28T18:23:41.959Z,14.22
2023-09-28T18:26:09.587Z,14.16
2023-09-28T18:28:38.745Z,14.11
2023-09-28T18:31:06.197Z,14.05
2023-09-28T18:33:33.693Z,14.01
2023-09-28T18:36:01.310Z,13.97
2023-09-28T18:38:29.411Z,13.93
2023-09-28T18:40:56.975Z,13.89
2023-09-28T18:43:24.664Z,13.84
2023-09-28T18:45:55.949Z,13.80
2023-09-28T18:48:24.871Z,13.76
2023-09-28T18:50:52.955Z,13.73
2023-09-28T18:53:21.278Z,13.70
2023-09-28T18:55:48.681Z,13.67
2023-09-28T18:58:16.056Z,13.63
2023-09-28T19:00:46.090Z,13.56
2023-09-28T19:03:13.780Z,13.50
2023-09-28T19:05:41.493Z,13.44
2023-09-28T19:08:09.696Z,13.39
2023-09-28T19:10:38.504Z,13.35
2023-09-28T19:13:05.944Z,13.31
2023-09-28T19:15:33.786Z,13.28
2023-09-28T19:18:01.448Z,13.25
2023-09-28T19:20:29.498Z,13.20
2023-09-28T19:22:56.929Z,13.17
2023-09-28T19:25:24.316Z,13.14
2023-09-28T19:27:51.958Z,13.10
2023-09-28T19:30:19.909Z,13.07
2023-09-28T19:32:47.490Z,13.02
2023-09-28T19:35:16.176Z,12.97
2023-09-28T19:37:43.653Z,12.91
2023-09-28T19:40:11.550Z,12.83
2023-09-28T19:42:41.461Z,12.77
2023-09-28T19:45:11.150Z,12.73
2023-09-28T19:47:38.769Z,12.71
2023-09-28T19:50:07.572Z,12.68
2023-09-28T19:52:35.291Z,12.66
2023-09-28T19:55:04.776Z,12.63
2023-09-28T19:57:32.136Z,12.60
2023-09-28T19:59:59.604Z,12.56
2023-09-28T20:02:27.205Z,12.55
2023-09-28T20:04:54.532Z,12.53
2023-09-28T20:07:22.463Z,12.51
2023-09-28T20:09:50.165Z,12.49
2023-09-28T20:12:18.846Z,12.47
2023-09-28T20:14:49.402Z,12.46
2023-09-28T20:17:17.321Z,12.45
2023-09-28T20:19:45.395Z,12.42
2023-09-28T20:22:12.718Z,12.39
2023-09-28T20:24:40.932Z,12.36
2023-09-28T20:27:08.242Z,12.32
2023-09-28T20:29:35.552Z,12.29
2023-09-28T20:32:03.368Z,12.25
2023-09-28T20:34:30.815Z,12.22
2023-09-28T20:36:58.097Z,12.19
2023-09-28T20:39:25.563Z,12.16
2023-09-28T20:41:53.130Z,12.13
2023-09-28T20:44:20.606Z,12.11
2023-09-28T20:46:48.004Z,12.08
2023-09-28T20:49:15.693Z,12.05
2023-09-28T20:51:43.665Z,12.02
2023-09-28T20:54:11.517Z,11.99
2023-09-28T20:56:38.878Z,11.97
2023-09-28T20:59:06.338Z,11.94
2023-09-28T21:01:33.812Z,11.92
2023-09-28T21:04:01.595Z,11.89
2023-09-28T21:06:31.288Z,11.87
2023-09-28T21:08:59.161Z,11.84
2023-09-28T21:11:26.636Z,11.80
2023-09-28T21:13:54.080Z,11.79
2023-09-28T21:16:22.189Z,11.75
2023-09-28T21:18:49.690Z,11.71
2023-09-28T21:21:19.366Z,11.67
2023-09-28T21:23:46.916Z,11.64
2023-09-28T21:26:14.510Z,11.61
2023-09-28T21:28:41.909Z,11.59
2023-09-28T21:31:12.472Z,11.55
2023-09-28T21:33:39.975Z,11.52
2023-09-28T21:36:07.830Z,11.48
2023-09-28T21:38:35.302Z,11.43
2023-09-28T21:41:12.154Z,11.38
2023-09-28T21:43:39.653Z,11.34
2023-09-28T21:46:07.235Z,11.32
2023-09-28T21:48:35.176Z,11.28
2023-09-28T21:51:03.735Z,11.26
2023-09-28T21:53:31.154Z,11.23
2023-09-28T21:55:59.770Z,11.21
2023-09-28T21:58:28.048Z,11.18
2023-09-28T22:00:55.367Z,11.14
2023-09-28T22:03:22.917Z,11.10
2023-09-28T22:05:54.735Z,11.07
2023-09-28T22:08:22.287Z,11.04
2023-09-28T22:10:51.081Z,10.99
2023-09-28T22:13:18.574Z,10.95
2023-09-28T22:15:49.215Z,10.92
2023-09-28T22:18:17.165Z,10.90
2023-09-28T22:20:44.789Z,10.90
2023-09-28T22:23:12.218Z,10.88
2023-09-28T22:25:39.519Z,10.86
2023-09-28T22:28:06.953Z,10.85
2023-09-28T22:30:34.269Z,10.83
2023-09-28T22:33:01.863Z,10.82
2023-09-28T22:35:29.527Z,10.80
2023-09-28T22:37:57.498Z,10.79
2023-09-28T22:40:28.767Z,10.76
2023-09-28T22:42:56.725Z,10.75
2023-09-28T22:45:24.626Z,10.73
2023-09-28T22:47:52.067Z,10.71
2023-09-28T22:50:19.747Z,10.71
2023-09-28T22:52:47.484Z,10.69
2023-09-28T22:55:14.781Z,10.67
2023-09-28T22:57:42.165Z,10.66
2023-09-28T23:00:14.095Z,10.63
2023-09-28T23:02:42.960Z,10.60
2023-09-28T23:05:10.951Z,10.57
2023-09-28T23:07:38.599Z,10.54
2023-09-28T23:10:06.509Z,10.50
2023-09-28T23:12:34.153Z,10.47
2023-09-28T23:15:01.571Z,10.46
2023-09-28T23:17:30.719Z,10.44
2023-09-28T23:19:58.202Z,10.41
2023-09-28T23:22:27.614Z,10.41
2023-09-28T23:24:55.649Z,10.40
2023-09-28T23:27:23.316Z,10.40
2023-09-28T23:29:51.937Z,10.39
2023-09-28T23:32:19.406Z,10.38
2023-09-28T23:34:46.960Z,10.36
2023-09-28T23:37:14.595Z,10.35
2023-09-28T23:39:42.588Z,10.34
2023-09-28T23:42:12.293Z,10.33
2023-09-28T23:44:39.655Z,10.32
2023-09-28T23:47:09.207Z,10.30
2023-09-28T23:49:36.985Z,10.23
2023-09-28T23:52:06.086Z,10.16
2023-09-28T23:54:33.663Z,10.09
2023-09-28T23:57:00.994Z,10.05
2023-09-28T23:59:28.308Z,10.02
